Los Ebanos, TX

2:56 AM CDT en Septiembre 01, 2015 (GMT -0500)
South Texas | | Change Station
CLOSE
Current Station
Estación meteorológica personal
Location: Mission, TX
Altura: 236 ft
Estaciones meteorológicas cercanas

Alt 236 ft 26.32 °N, 98.46 °W | Updated 14 seconds ago

Parcialmente nublado
Parcialmente nublado
73.5 ° F
Sensación térmica 72 ° F
N
0.0
Viento Variable Viento desde Este
Gusts 0.0 mph

Hoy
Alta -- | Baja -- ° F
--% Posibilidad de precipitaciones
Ayer
Alta -- | Baja -- ° F
Precip. -- pul
7:13 AM 7:53 PM
Gibosa menguante, 90% visible
Presión 29.95 pul
Visibilidad 10.0 Millas
Nubes Baja 2400 ft
Baja 3100 ft
Índice de calor 72 ° F
Punto de rocío 69 ° F
Humedad 87%
Precipitaciones 0.00 pul
Espesor de la nieve No disponible.
UV 0.0 de una escala de 12
Polen 8.00 de una escala de 12
Calidad del aire No disponible.
Flu Activity No disponible.
METAR KMFE 010753Z AUTO 26003KT 10SM FEW024 FEW031 26/22 A2996 RMK AO2 SLP142 T02560222 PNO
Presión 29.95 pul
Visibilidad 10.0 Millas
Nubes Baja 2400 ft
Baja 3100 ft
Índice de calor 72 ° F
Punto de rocío 69 ° F
Humedad 87%
Precipitaciones 0.00 pul
Espesor de la nieve No disponible.
UV 0.0 de una escala de 12
Polen 8.00 de una escala de 12
Calidad del aire No disponible.
Flu Activity No disponible.
METAR KMFE 010753Z AUTO 26003KT 10SM FEW024 FEW031 26/22 A2996 RMK AO2 SLP142 T02560222 PNO

10-Day Weather Forecast

×

Almanac

Astronomía

Sep. 01, 2015 Salida Puesta
Hora real
Crepúsculo civil
Crepúsculo náutico
Crepúsculo astronómico
Luna
Horas de luz
Horas de luz
Tomorrow will be .
, % of the Moon is Illuminated

Extremos de hoy

Máximos del estado Bajos del estado

Community

WunderPhotos

Upload Photos

1,851,488 ¡fotos cargadas!

WunderBlogs® & News

Nearby

Calidad del aire

  Calidad del aire Índice AQ Contaminante
Not available.

Grosos de nieve

Estación Profundido Altura

Actividad de terremotos

Ciudad Distance Mag. Tiempo y dato
Magnitud mínima muestra es 2,5.

Temperaturas de aguas costeras

Lugar Temperatura

Stations

Estaciones meteorológicas cercanas

Ubicación de la estación Temp. Vientos helados Punto de rocío Humedad Viento Precip. Alt Actualizado Tipo